Time;durP1;ratioP1;P1;durP2;ratioP2;P2;SDS_P1;SDS_P2;PMS_P1;PMS_P2;Temp;Humidity;BMP_temperature;BMP_pressure;BME280_temperature;BME280_humidity;BME280_pressure;Samples;Min_cycle;Max_cycle;Signal;HPM_P1;HPM_P2
2023/10/17 00:01:21;;;;;;;7.30;3.97;;;11.20;99.90;;;;;;5005188;28;20470;-14
2023/10/17 00:03:47;;;;;;;7.05;4.00;;;11.20;99.90;;;;;;4991466;28;21214;-14
2023/10/17 00:06:22;;;;;;;5.97;3.60;;;11.30;99.90;;;;;;4980259;28;20022;-14
2023/10/17 00:08:50;;;;;;;7.55;3.88;;;11.20;99.90;;;;;;4985673;28;20478;-14
2023/10/17 00:11:17;;;;;;;7.93;4.22;;;11.20;99.90;;;;;;4978225;28;20466;-13
2023/10/17 00:13:59;;;;;;;6.90;3.83;;;11.20;99.90;;;;;;4991451;28;20403;-14
2023/10/17 00:16:26;;;;;;;6.50;4.20;;;11.20;99.90;;;;;;4990816;28;20068;-14
2023/10/17 00:18:52;;;;;;;7.73;4.10;;;11.20;99.90;;;;;;5009863;28;20025;-14
2023/10/17 00:21:25;;;;;;;6.95;4.10;;;11.20;99.90;;;;;;5006469;28;20646;-13
2023/10/17 00:23:52;;;;;;;6.65;3.78;;;11.20;99.90;;;;;;4992407;28;20566;-14
2023/10/17 00:26:22;;;;;;;7.80;4.05;;;11.20;99.90;;;;;;4961546;28;20557;-14
2023/10/17 00:28:48;;;;;;;8.47;4.17;;;11.20;99.90;;;;;;4995458;28;20787;-13
2023/10/17 00:31:14;;;;;;;8.23;4.60;;;11.20;99.90;;;;;;5013838;28;20830;-14
2023/10/17 00:33:41;;;;;;;7.70;4.20;;;11.20;99.90;;;;;;4990653;28;20030;-14
2023/10/17 00:36:14;;;;;;;7.80;4.00;;;11.20;99.90;;;;;;5004775;28;20030;-14
2023/10/17 00:38:43;;;;;;;8.27;4.40;;;11.20;99.90;;;;;;4994141;28;20541;-13
2023/10/17 00:41:29;;;;;;;9.38;4.05;;;11.20;99.90;;;;;;4995468;28;20275;-14
2023/10/17 00:43:55;;;;;;;7.70;4.00;;;11.20;99.90;;;;;;4975671;28;20359;-15
2023/10/17 00:46:21;;;;;;;7.38;4.28;;;11.20;99.90;;;;;;5017622;28;20048;-15
2023/10/17 00:48:48;;;;;;;8.17;4.50;;;11.20;99.90;;;;;;4994219;28;20491;-15
2023/10/17 00:51:19;;;;;;;10.18;4.65;;;11.20;99.90;;;;;;4994992;28;20603;-15
2023/10/17 00:53:46;;;;;;;8.20;4.63;;;12.60;99.90;;;;;;5010307;28;20044;-15
2023/10/17 00:56:13;;;;;;;9.57;4.97;;;11.20;99.90;;;;;;4998254;28;20033;-15
2023/10/17 00:58:42;;;;;;;9.75;5.22;;;10.70;99.90;;;;;;4979065;28;20017;-15
2023/10/17 01:01:20;;;;;;;9.67;4.63;;;11.10;99.90;;;;;;5002690;28;20075;-15
2023/10/17 01:03:49;;;;;;;9.10;4.40;;;11.20;99.90;;;;;;4984072;28;20037;-15
2023/10/17 01:08:54;;;;;;;9.63;4.40;;;11.20;99.90;;;;;;5000063;28;20029;-15
2023/10/17 01:11:21;;;;;;;9.80;5.03;;;11.20;99.90;;;;;;4996094;28;20567;-15
2023/10/17 01:13:50;;;;;;;9.20;4.63;;;11.20;99.90;;;;;;4951071;28;20041;-15
2023/10/17 01:16:16;;;;;;;10.65;5.05;;;11.20;99.90;;;;;;5005076;28;20988;-15
2023/10/17 01:18:46;;;;;;;9.07;4.65;;;11.20;99.90;;;;;;5007875;28;20048;-15
2023/10/17 01:21:18;;;;;;;9.73;4.60;;;11.20;99.90;;;;;;4995931;28;20384;-15
2023/10/17 01:23:48;;;;;;;8.97;5.00;;;11.20;99.90;;;;;;4996968;28;20033;-15
2023/10/17 01:26:23;;;;;;;10.35;4.97;;;11.20;99.90;;;;;;4996139;28;20034;-15
2023/10/17 01:28:51;;;;;;;9.48;5.32;;;11.20;99.90;;;;;;4999227;28;20061;-16
2023/10/17 01:31:24;;;;;;;8.02;4.20;;;11.20;99.90;;;;;;4983690;28;20033;-15
2023/10/17 01:33:54;;;;;;;10.07;5.05;;;11.20;99.90;;;;;;4995821;28;20025;-15
2023/10/17 01:36:21;;;;;;;8.97;4.57;;;11.20;99.90;;;;;;4996654;28;20038;-15
2023/10/17 01:38:49;;;;;;;9.57;4.88;;;11.20;99.90;;;;;;4998804;28;20077;-15
2023/10/17 01:41:19;;;;;;;9.55;4.72;;;11.10;99.90;;;;;;4996136;28;20049;-15
2023/10/17 01:43:50;;;;;;;7.70;4.05;;;10.70;99.90;;;;;;4984289;28;20033;-15
2023/10/17 01:46:28;;;;;;;9.23;4.85;;;11.20;99.90;;;;;;5004021;28;20084;-15
2023/10/17 01:48:56;;;;;;;8.63;4.07;;;11.20;99.90;;;;;;4991434;28;20116;-15
2023/10/17 01:51:23;;;;;;;8.90;4.55;;;11.10;99.90;;;;;;4997335;28;20030;-15
2023/10/17 01:53:52;;;;;;;9.90;4.97;;;11.10;99.90;;;;;;4997202;28;20149;-15
2023/10/17 01:56:26;;;;;;;10.15;5.10;;;11.10;99.90;;;;;;5004307;28;20217;-15
2023/10/17 01:58:55;;;;;;;9.38;4.82;;;11.10;99.90;;;;;;4987899;28;20037;-15
2023/10/17 02:01:25;;;;;;;9.33;4.67;;;11.20;99.90;;;;;;5000662;28;20029;-15
2023/10/17 02:03:53;;;;;;;7.43;4.45;;;11.20;99.90;;;;;;4995507;28;20042;-15
2023/10/17 02:06:22;;;;;;;7.40;4.20;;;11.20;99.90;;;;;;5012716;28;22768;-15
2023/10/17 02:08:48;;;;;;;9.15;5.07;;;11.00;99.90;;;;;;5004846;28;20030;-15
2023/10/17 02:11:23;;;;;;;8.17;4.73;;;11.10;99.90;;;;;;4985799;28;20065;-15
2023/10/17 02:13:57;;;;;;;6.95;4.00;;;11.10;99.90;;;;;;4986427;28;20037;-15
2023/10/17 02:16:24;;;;;;;8.32;4.38;;;11.10;99.90;;;;;;5001192;28;20033;-15
2023/10/17 02:18:51;;;;;;;8.50;4.15;;;11.20;99.90;;;;;;5002654;28;20025;-15
2023/10/17 02:21:18;;;;;;;7.30;3.70;;;11.10;99.90;;;;;;5006550;28;20376;-15
2023/10/17 02:23:50;;;;;;;7.13;4.10;;;11.10;99.90;;;;;;4998583;28;20021;-15
2023/10/17 02:26:21;;;;;;;8.00;4.38;;;11.10;99.90;;;;;;4988552;28;20025;-15
2023/10/17 02:28:53;;;;;;;5.97;3.70;;;11.10;99.90;;;;;;4996178;28;25051;-15
2023/10/17 02:31:27;;;;;;;7.35;3.70;;;10.60;99.90;;;;;;4984151;28;20168;-15
2023/10/17 02:33:54;;;;;;;7.13;3.80;;;11.10;99.90;;;;;;5007716;28;20029;-15
2023/10/17 02:36:20;;;;;;;7.60;4.03;;;11.10;99.90;;;;;;5019263;28;20237;-15
2023/10/17 02:38:45;;;;;;;6.85;3.50;;;11.10;99.90;;;;;;5010209;28;20029;-15
2023/10/17 02:41:18;;;;;;;8.07;4.10;;;11.10;99.90;;;;;;4983839;28;20256;-15
2023/10/17 02:43:52;;;;;;;7.93;4.33;;;11.10;99.90;;;;;;4997405;28;20022;-15
2023/10/17 02:46:18;;;;;;;5.70;3.38;;;11.10;99.90;;;;;;4976938;28;20041;-15
2023/10/17 02:48:47;;;;;;;7.38;3.97;;;11.10;99.90;;;;;;5008879;28;20416;-15
2023/10/17 02:53:53;;;;;;;7.47;3.92;;;11.00;99.90;;;;;;4995117;28;20171;-15
2023/10/17 02:56:23;;;;;;;6.67;4.20;;;11.10;99.90;;;;;;4994289;28;20415;-16
2023/10/17 02:59:04;;;;;;;7.90;4.03;;;11.00;99.90;;;;;;5004297;28;20033;-15
2023/10/17 03:01:30;;;;;;;8.82;3.78;;;9.90;99.90;;;;;;4986274;28;20049;-15
2023/10/17 03:04:08;;;;;;;7.30;4.00;;;11.00;99.90;;;;;;4991903;28;20681;-15
2023/10/17 03:06:40;;;;;;;7.38;4.03;;;11.00;99.90;;;;;;5006375;28;20064;-15
2023/10/17 03:09:16;;;;;;;6.30;3.90;;;11.00;99.90;;;;;;4995040;28;20030;-15
2023/10/17 03:11:57;;;;;;;6.25;3.47;;;11.00;99.90;;;;;;4996074;28;20809;-15
2023/10/17 03:17:15;;;;;;;6.05;3.25;;;11.00;99.90;;;;;;4922872;28;20266;-14
2023/10/17 03:19:41;;;;;;;6.65;3.55;;;10.90;99.90;;;;;;5006274;28;20360;-14
2023/10/17 03:22:16;;;;;;;6.47;3.50;;;10.90;99.90;;;;;;5005188;28;20731;-14
2023/10/17 03:24:47;;;;;;;6.53;3.40;;;10.90;99.90;;;;;;5022901;28;20615;-14
2023/10/17 03:28:15;;;;;;;6.57;3.60;;;10.00;99.90;;;;;;4984891;28;20578;-14
2023/10/17 03:30:11;;;;;;;6.20;3.38;;;10.90;99.90;;;;;;4990848;28;20881;-14
2023/10/17 03:35:25;;;;;;;6.97;3.40;;;10.90;99.90;;;;;;5005667;28;20061;-14
2023/10/17 03:37:51;;;;;;;6.03;3.17;;;10.90;99.90;;;;;;5008407;28;20357;-14
2023/10/17 03:42:53;;;;;;;7.03;3.17;;;10.80;99.90;;;;;;4982846;28;20049;-14
2023/10/17 03:47:53;;;;;;;5.93;3.00;;;10.80;99.90;;;;;;4998277;28;20337;-14
2023/10/17 03:50:31;;;;;;;6.65;3.28;;;10.80;99.90;;;;;;5000944;28;20118;-14
2023/10/17 03:53:25;;;;;;;5.18;3.03;;;10.80;99.90;;;;;;5004935;28;20098;-14
2023/10/17 03:55:51;;;;;;;5.40;3.00;;;10.80;99.90;;;;;;5003734;28;20039;-14
2023/10/17 04:00:46;;;;;;;5.30;3.10;;;10.80;99.90;;;;;;5006502;28;20037;-14
2023/10/17 04:03:21;;;;;;;5.82;3.50;;;10.80;99.90;;;;;;4971634;28;20987;-14
2023/10/17 04:06:02;;;;;;;7.15;3.67;;;10.80;99.90;;;;;;5006474;28;20025;-14
2023/10/17 04:08:34;;;;;;;5.80;3.17;;;10.80;99.90;;;;;;5003212;28;20064;-14
2023/10/17 04:13:57;;;;;;;6.50;3.43;;;10.80;99.90;;;;;;4992943;28;20038;-14
2023/10/17 04:16:44;;;;;;;5.43;3.00;;;10.80;99.90;;;;;;4994342;28;20033;-13
2023/10/17 04:19:17;;;;;;;6.63;3.10;;;10.80;99.90;;;;;;4974656;28;20581;-14
2023/10/17 04:27:07;;;;;;;5.50;3.03;;;10.70;99.90;;;;;;5014126;28;20030;-15
2023/10/17 04:29:37;;;;;;;6.20;3.10;;;10.70;99.90;;;;;;4983675;28;20026;-16
2023/10/17 04:32:10;;;;;;;6.00;3.47;;;10.70;99.90;;;;;;4992365;28;20036;-15
2023/10/17 04:34:44;;;;;;;6.65;3.40;;;9.60;99.90;;;;;;5003603;28;20083;-15
2023/10/17 04:37:10;;;;;;;7.05;3.22;;;10.70;99.90;;;;;;4984246;28;20053;-15
2023/10/17 04:39:36;;;;;;;6.23;3.50;;;10.70;99.90;;;;;;5004775;28;20065;-15
2023/10/17 04:42:06;;;;;;;5.88;2.80;;;10.70;99.90;;;;;;5001762;28;20037;-15
2023/10/17 04:44:34;;;;;;;5.50;2.83;;;10.70;99.90;;;;;;4992308;28;20026;-15
2023/10/17 04:49:30;;;;;;;5.75;2.85;;;10.70;99.90;;;;;;4993918;28;20026;-15
2023/10/17 04:52:09;;;;;;;5.57;3.38;;;10.70;99.90;;;;;;4969816;28;20033;-15
2023/10/17 04:57:04;;;;;;;5.07;2.88;;;10.50;99.90;;;;;;4999654;28;20025;-15
2023/10/17 05:02:35;;;;;;;5.00;3.10;;;10.70;99.90;;;;;;4974682;28;20435;-15
2023/10/17 06:18:32;;;;;;;3.88;2.08;;;10.00;99.90;;;;;;5000280;28;20469;-15
2023/10/17 06:21:18;;;;;;;4.18;2.30;;;10.50;99.90;;;;;;5004433;28;20048;-15
2023/10/17 06:34:15;;;;;;;4.97;2.65;;;12.80;99.90;;;;;;4993910;28;20041;-14
2023/10/17 06:36:42;;;;;;;4.85;2.42;;;10.40;99.90;;;;;;5005728;28;20617;-14
2023/10/17 06:39:16;;;;;;;3.90;2.30;;;10.50;99.90;;;;;;4990736;28;20033;-14
2023/10/17 06:41:44;;;;;;;4.53;2.65;;;10.40;99.90;;;;;;4999343;28;20030;-13
2023/10/17 06:44:11;;;;;;;4.15;2.40;;;11.20;99.90;;;;;;5004838;28;20084;-15
2023/10/17 06:46:40;;;;;;;4.30;2.47;;;10.50;99.90;;;;;;5007663;28;20781;-15
2023/10/17 06:49:28;;;;;;;4.47;2.38;;;10.40;99.90;;;;;;5000700;28;20564;-15
2023/10/17 06:52:09;;;;;;;5.40;2.30;;;10.50;99.90;;;;;;4981597;28;20419;-15
2023/10/17 06:54:40;;;;;;;4.90;2.65;;;10.50;99.90;;;;;;4989160;28;20017;-15
2023/10/17 06:57:19;;;;;;;4.68;2.45;;;10.50;99.90;;;;;;4991622;28;20025;-15
2023/10/17 06:59:46;;;;;;;4.15;2.45;;;10.50;99.90;;;;;;4985554;28;20040;-15
2023/10/17 07:04:59;;;;;;;3.73;2.60;;;10.60;99.90;;;;;;4993679;28;20041;-14
2023/10/17 07:07:32;;;;;;;4.75;2.60;;;10.60;99.90;;;;;;4993662;28;20400;-14
2023/10/17 07:12:47;;;;;;;5.05;2.50;;;10.60;99.90;;;;;;4995811;28;20026;-14
2023/10/17 07:15:18;;;;;;;6.75;3.03;;;10.60;99.90;;;;;;5013672;28;20226;-14
2023/10/17 07:18:39;;;;;;;5.20;2.57;;;10.60;99.90;;;;;;5004573;28;20075;-14
2023/10/17 07:23:26;;;;;;;4.40;2.45;;;10.70;99.90;;;;;;4987974;28;20096;-14
2023/10/17 07:25:56;;;;;;;5.57;3.00;;;10.70;99.90;;;;;;4997468;28;20124;-14
2023/10/17 07:28:22;;;;;;;4.75;2.63;;;10.80;99.90;;;;;;4986849;28;20271;-14
2023/10/17 07:30:57;;;;;;;4.07;2.10;;;10.80;99.90;;;;;;5002819;28;20343;-14
2023/10/17 07:33:24;;;;;;;3.60;2.28;;;10.90;99.90;;;;;;4994035;28;20493;-14
2023/10/17 07:35:56;;;;;;;3.88;2.10;;;10.90;99.90;;;;;;5004613;28;20088;-14
2023/10/17 07:38:27;;;;;;;3.60;2.08;;;9.90;99.90;;;;;;5000869;28;20704;-14
2023/10/17 07:41:09;;;;;;;3.70;2.50;;;11.00;99.90;;;;;;4989411;28;20489;-14
2023/10/17 07:43:35;;;;;;;4.20;2.10;;;11.00;99.90;;;;;;5010375;28;20042;-14
2023/10/17 07:46:07;;;;;;;4.88;2.42;;;11.00;99.90;;;;;;5001717;28;20030;-14
2023/10/17 07:48:34;;;;;;;3.42;2.20;;;11.10;99.90;;;;;;5007048;28;20376;-14
2023/10/17 07:51:04;;;;;;;4.80;2.15;;;11.10;99.90;;;;;;4984087;28;20049;-14
2023/10/17 07:53:32;;;;;;;4.20;2.22;;;11.10;99.90;;;;;;5004902;28;20487;-14
2023/10/17 07:56:12;;;;;;;2.87;1.93;;;11.20;99.90;;;;;;4994724;28;20072;-14
2023/10/17 07:58:45;;;;;;;3.72;1.92;;;11.20;99.90;;;;;;4971009;28;20025;-14
2023/10/17 08:01:15;;;;;;;3.42;2.30;;;11.20;99.90;;;;;;5002272;28;20231;-14
2023/10/17 08:03:49;;;;;;;3.47;1.92;;;11.20;99.90;;;;;;5021804;28;20120;-14
2023/10/17 08:06:20;;;;;;;4.10;2.05;;;11.30;99.90;;;;;;4991250;28;20037;-13
2023/10/17 08:08:46;;;;;;;3.93;2.00;;;11.30;99.90;;;;;;5007819;28;20525;-14
2023/10/17 08:11:27;;;;;;;3.75;2.13;;;11.40;99.90;;;;;;4992112;28;20034;-14
2023/10/17 08:13:57;;;;;;;2.90;2.00;;;11.40;99.90;;;;;;4958694;28;20033;-14
2023/10/17 08:16:29;;;;;;;4.50;1.97;;;11.40;99.90;;;;;;5006812;28;20022;-14
2023/10/17 08:19:12;;;;;;;3.38;2.03;;;11.50;99.90;;;;;;4996846;28;20490;-14
2023/10/17 08:22:10;;;;;;;3.88;2.20;;;11.50;99.90;;;;;;4994210;28;20371;-14
2023/10/17 08:27:41;;;;;;;3.80;2.30;;;11.60;99.90;;;;;;4987846;28;20034;-14
2023/10/17 08:30:23;;;;;;;3.60;2.10;;;11.70;99.90;;;;;;4964634;28;20081;-14
2023/10/17 08:33:09;;;;;;;3.28;1.90;;;11.70;99.90;;;;;;5002793;28;20042;-14
2023/10/17 08:35:51;;;;;;;3.92;2.28;;;11.80;99.90;;;;;;5003226;28;20509;-14
2023/10/17 08:38:17;;;;;;;4.07;2.15;;;11.80;99.90;;;;;;4979160;28;20946;-14
2023/10/17 08:40:43;;;;;;;3.45;2.17;;;11.90;99.90;;;;;;5008506;28;20099;-14
2023/10/17 08:43:20;;;;;;;3.83;2.10;;;11.90;99.90;;;;;;4993190;28;20194;-14
2023/10/17 08:45:47;;;;;;;5.60;2.60;;;12.00;99.90;;;;;;4979104;28;20048;-14
2023/10/17 08:48:14;;;;;;;3.50;2.05;;;12.00;99.90;;;;;;5003498;28;20726;-14
2023/10/17 08:50:40;;;;;;;5.53;2.70;;;12.20;99.90;;;;;;5000701;28;20478;-14
2023/10/17 08:53:13;;;;;;;4.50;2.03;;;12.20;99.90;;;;;;4984224;28;20687;-14
2023/10/17 08:55:40;;;;;;;3.07;2.10;;;12.30;99.90;;;;;;4992006;28;20084;-15
2023/10/17 08:58:09;;;;;;;4.25;2.22;;;12.40;99.90;;;;;;4991810;28;20739;-15
2023/10/17 09:00:49;;;;;;;3.55;2.10;;;12.50;99.90;;;;;;5005526;28;20472;-15
2023/10/17 09:03:37;;;;;;;3.20;2.17;;;12.60;99.90;;;;;;4994439;28;20072;-15
2023/10/17 09:09:17;;;;;;;3.13;2.13;;;12.90;99.90;;;;;;4996488;28;20087;-15
2023/10/17 09:12:01;;;;;;;3.92;2.15;;;13.10;99.90;;;;;;5006384;28;20159;-15
2023/10/17 09:14:35;;;;;;;2.97;1.80;;;13.50;99.90;;;;;;5023471;28;20029;-15
2023/10/17 09:17:50;;;;;;;3.33;2.08;;;14.10;99.90;;;;;;4980564;28;20115;-15
2023/10/17 09:20:05;;;;;;;2.33;1.70;;;14.80;99.90;;;;;;4991035;28;20068;-15
2023/10/17 09:22:32;;;;;;;3.33;1.70;;;15.50;99.90;;;;;;5006516;28;20534;-16
2023/10/17 09:24:59;;;;;;;2.35;1.45;;;16.00;99.90;;;;;;4993188;28;20038;-15
2023/10/17 09:27:31;;;;;;;2.85;1.77;;;16.60;99.90;;;;;;5012707;28;20025;-16
2023/10/17 09:30:00;;;;;;;2.55;1.77;;;17.10;99.90;;;;;;4994489;28;20116;-15
2023/10/17 09:32:36;;;;;;;1.98;1.55;;;17.70;99.90;;;;;;4997508;28;20040;-16
2023/10/17 09:35:16;;;;;;;2.40;1.83;;;18.30;99.90;;;;;;5005142;28;20033;-15
2023/10/17 09:37:44;;;;;;;2.90;1.70;;;18.90;99.90;;;;;;4995873;28;20033;-15
2023/10/17 09:40:12;;;;;;;2.88;2.15;;;19.40;99.90;;;;;;4992062;28;20766;-16
2023/10/17 09:42:46;;;;;;;2.85;1.60;;;19.90;99.90;;;;;;5009920;28;20049;-16
2023/10/17 09:45:14;;;;;;;2.83;1.95;;;20.40;99.90;;;;;;4998014;28;20251;-15
2023/10/17 09:47:45;;;;;;;3.73;1.80;;;20.80;99.90;;;;;;4982475;28;20366;-16
2023/10/17 09:50:14;;;;;;;2.70;1.80;;;21.20;99.90;;;;;;5006644;28;20086;-15
2023/10/17 09:52:41;;;;;;;2.28;1.50;;;21.50;99.90;;;;;;5000100;28;20041;-15
2023/10/17 09:55:10;;;;;;;1.90;1.60;;;21.80;99.90;;;;;;5002187;28;20044;-15
2023/10/17 09:57:39;;;;;;;2.45;1.70;;;22.10;99.90;;;;;;5001860;28;20064;-15
2023/10/17 10:00:10;;;;;;;2.67;1.70;;;22.30;99.90;;;;;;4996884;28;20036;-15
2023/10/17 10:02:38;;;;;;;1.95;1.63;;;22.60;99.90;;;;;;5005949;28;20349;-16
2023/10/17 10:05:21;;;;;;;1.90;1.45;;;22.80;99.90;;;;;;4986130;28;20072;-15
2023/10/17 10:07:47;;;;;;;2.00;1.60;;;23.10;99.90;;;;;;5006339;28;20064;-15
2023/10/17 10:10:41;;;;;;;2.80;1.63;;;23.40;99.90;;;;;;4997682;28;20559;-15
2023/10/17 10:13:13;;;;;;;1.90;1.30;;;23.70;99.40;;;;;;4985369;28;20373;-15
2023/10/17 10:16:01;;;;;;;2.33;1.70;;;24.00;99.90;;;;;;4996445;28;20116;-15
2023/10/17 10:18:35;;;;;;;2.38;1.70;;;24.20;99.90;;;;;;5004906;28;20045;-15
2023/10/17 10:21:05;;;;;;;1.85;1.58;;;24.50;99.90;;;;;;4982708;28;20103;-15
2023/10/17 10:23:42;;;;;;;2.10;1.70;;;24.70;99.90;;;;;;5002994;28;20017;-15
2023/10/17 10:26:10;;;;;;;3.67;1.85;;;25.00;99.90;;;;;;4988319;28;23637;-16
2023/10/17 10:28:43;;;;;;;2.10;1.70;;;25.10;99.90;;;;;;4995763;28;20056;-15
2023/10/17 10:31:28;;;;;;;2.00;1.60;;;25.20;99.90;;;;;;4997121;28;20353;-16
2023/10/17 10:33:56;;;;;;;2.58;1.48;;;25.30;98.70;;;;;;5008374;28;20112;-15
2023/10/17 10:36:26;;;;;;;1.97;1.40;;;25.50;99.90;;;;;;4982110;28;20037;-15
2023/10/17 10:38:54;;;;;;;1.80;1.40;;;25.70;99.90;;;;;;5001590;28;20065;-15
2023/10/17 10:41:22;;;;;;;3.67;1.60;;;25.80;99.90;;;;;;5015353;28;20033;-15
2023/10/17 10:43:49;;;;;;;2.42;1.67;;;25.90;99.90;;;;;;4998029;28;20025;-16
2023/10/17 10:46:18;;;;;;;2.88;1.60;;;26.00;99.90;;;;;;4994693;28;20037;-14
2023/10/17 10:48:48;;;;;;;2.20;1.50;;;26.10;99.70;;;;;;5008776;28;20435;-14
2023/10/17 10:51:17;;;;;;;2.75;1.40;;;26.10;98.40;;;;;;4981774;28;20030;-14
2023/10/17 10:53:54;;;;;;;2.08;1.40;;;26.20;99.80;;;;;;4985083;28;20437;-14
2023/10/17 10:56:22;;;;;;;1.55;1.25;;;26.20;99.90;;;;;;5006619;28;20033;-14
2023/10/17 10:58:51;;;;;;;2.17;1.50;;;26.30;99.50;;;;;;4979562;28;20034;-14
2023/10/17 11:01:27;;;;;;;2.60;1.30;;;26.20;98.80;;;;;;4972690;28;20046;-14
2023/10/17 11:03:53;;;;;;;1.23;1.13;;;26.10;98.10;;;;;;4994723;28;20029;-14
2023/10/17 11:06:24;;;;;;;2.72;1.30;;;26.00;98.40;;;;;;4948890;28;20041;-14
2023/10/17 11:08:51;;;;;;;2.05;1.08;;;25.90;96.90;;;;;;5008521;28;20032;-14
2023/10/17 11:11:19;;;;;;;1.77;1.42;;;25.90;98.70;;;;;;5003111;28;20030;-14
2023/10/17 11:13:54;;;;;;;3.30;1.67;;;25.90;99.20;;;;;;4992974;28;20159;-14
2023/10/17 11:16:25;;;;;;;1.38;1.20;;;25.90;96.90;;;;;;4984599;28;20037;-14
2023/10/17 11:18:51;;;;;;;2.72;1.40;;;26.10;98.50;;;;;;5022869;28;20033;-14
2023/10/17 11:21:22;;;;;;;1.40;1.30;;;26.30;99.90;;;;;;4968427;28;20048;-14
2023/10/17 11:23:50;;;;;;;2.47;1.40;;;26.30;97.60;;;;;;5001588;28;20039;-14
2023/10/17 11:26:21;;;;;;;1.73;1.30;;;26.40;96.90;;;;;;5004250;28;20120;-15
2023/10/17 11:28:47;;;;;;;2.10;1.25;;;26.40;97.20;;;;;;5007051;28;20501;-14
2023/10/17 11:31:22;;;;;;;1.45;1.27;;;26.40;97.60;;;;;;4986250;28;20057;-14
2023/10/17 11:33:56;;;;;;;1.90;1.17;;;26.40;97.80;;;;;;4999471;28;20737;-14
2023/10/17 11:36:35;;;;;;;2.50;1.20;;;26.40;95.20;;;;;;4979368;28;20574;-14
2023/10/17 11:39:04;;;;;;;1.13;1.03;;;26.50;96.60;;;;;;5008109;28;20034;-14
2023/10/17 11:41:39;;;;;;;1.27;1.10;;;26.60;97.90;;;;;;5003740;28;20212;-14
2023/10/17 11:44:09;;;;;;;1.60;1.42;;;26.60;97.70;;;;;;5002003;28;20540;-14
2023/10/17 11:46:37;;;;;;;2.30;1.15;;;26.70;96.30;;;;;;4995200;28;20029;-14
2023/10/17 11:49:29;;;;;;;1.20;1.10;;;26.60;96.70;;;;;;4993485;28;20030;-14
2023/10/17 11:52:13;;;;;;;1.47;1.27;;;26.50;92.30;;;;;;4980519;28;20063;-14
2023/10/17 11:55:11;;;;;;;1.58;1.23;;;26.40;92.30;;;;;;5006225;28;20099;-14
2023/10/17 11:57:37;;;;;;;2.30;0.98;;;26.30;91.80;;;;;;5010849;28;20240;-15
2023/10/17 12:00:19;;;;;;;1.15;0.90;;;26.20;96.00;;;;;;4986033;28;20100;-15
2023/10/17 12:02:48;;;;;;;1.65;1.10;;;26.00;95.80;;;;;;4994830;28;20050;-15
2023/10/17 12:05:18;;;;;;;2.03;1.30;;;26.00;96.20;;;;;;5020696;28;20024;-15
2023/10/17 12:07:57;;;;;;;1.20;1.02;;;26.00;96.60;;;;;;4997346;28;20095;-15
2023/10/17 12:10:26;;;;;;;1.38;1.10;;;26.00;94.70;;;;;;4996265;28;20537;-15
2023/10/17 12:12:52;;;;;;;1.90;0.90;;;26.10;97.30;;;;;;5007924;28;20060;-15
2023/10/17 12:15:20;;;;;;;2.55;1.15;;;26.20;97.70;;;;;;4987719;28;20029;-15
2023/10/17 12:17:48;;;;;;;1.47;1.27;;;26.40;98.30;;;;;;5009689;28;20918;-15
2023/10/17 12:20:16;;;;;;;1.45;1.13;;;26.50;98.00;;;;;;5008496;28;20484;-15
2023/10/17 12:22:42;;;;;;;2.88;1.38;;;26.60;97.70;;;;;;4981581;28;20033;-15
2023/10/17 12:25:16;;;;;;;1.73;1.30;;;26.80;98.00;;;;;;4992106;28;20036;-15
2023/10/17 12:27:42;;;;;;;1.47;1.10;;;27.00;97.60;;;;;;5003784;28;20277;-15
2023/10/17 12:30:09;;;;;;;2.08;1.10;;;27.10;97.70;;;;;;4993036;28;20570;-15
2023/10/17 12:32:35;;;;;;;1.70;1.20;;;27.20;97.20;;;;;;4997452;28;20025;-15
2023/10/17 12:35:02;;;;;;;2.05;1.10;;;27.20;97.00;;;;;;4982015;28;20099;-15
2023/10/17 12:37:28;;;;;;;2.37;1.30;;;27.30;96.60;;;;;;5005420;28;20103;-15
2023/10/17 12:39:53;;;;;;;1.35;1.00;;;27.30;96.60;;;;;;4986048;28;20033;-16
2023/10/17 12:42:20;;;;;;;1.30;0.90;;;27.40;96.50;;;;;;5002267;28;20029;-15
2023/10/17 12:44:45;;;;;;;1.38;0.90;;;27.30;95.80;;;;;;4993794;28;20033;-16
2023/10/17 12:47:11;;;;;;;1.58;1.15;;;27.30;96.00;;;;;;4981194;28;20034;-15
2023/10/17 12:49:39;;;;;;;1.20;1.10;;;27.20;95.30;;;;;;5001166;28;20264;-15
2023/10/17 12:52:05;;;;;;;1.63;1.10;;;27.20;95.10;;;;;;5006947;28;20604;-15
2023/10/17 12:54:32;;;;;;;1.42;1.10;;;27.10;95.20;;;;;;4981758;28;20029;-15
2023/10/17 12:56:57;;;;;;;1.90;1.10;;;27.00;95.00;;;;;;5025554;28;20069;-15
2023/10/17 12:59:23;;;;;;;1.88;1.10;;;27.00;95.50;;;;;;5007170;28;20115;-15
2023/10/17 13:01:51;;;;;;;1.20;1.10;;;26.90;94.70;;;;;;4997923;28;20051;-15
2023/10/17 13:04:19;;;;;;;1.45;0.90;;;26.90;95.20;;;;;;5006731;28;20064;-15
2023/10/17 13:06:46;;;;;;;1.52;1.00;;;26.80;94.90;;;;;;5000466;28;20018;-14
2023/10/17 13:09:11;;;;;;;1.55;1.10;;;26.70;94.60;;;;;;4986881;28;20407;-14
2023/10/17 13:11:37;;;;;;;2.50;1.27;;;26.70;94.70;;;;;;5012747;28;20021;-14
2023/10/17 13:14:03;;;;;;;2.22;1.10;;;26.60;94.60;;;;;;5008607;28;20057;-14
2023/10/17 13:16:29;;;;;;;1.33;0.90;;;26.50;94.30;;;;;;4988844;28;20562;-14
2023/10/17 13:18:56;;;;;;;1.45;1.10;;;26.40;94.30;;;;;;5009032;28;20033;-14
2023/10/17 13:21:23;;;;;;;1.52;0.90;;;26.40;94.70;;;;;;4992507;28;20619;-14
2023/10/17 13:23:48;;;;;;;1.38;1.00;;;26.30;94.60;;;;;;5005625;28;20825;-14
2023/10/17 13:26:15;;;;;;;1.27;1.10;;;26.30;94.60;;;;;;4979381;28;20033;-14
2023/10/17 13:28:42;;;;;;;1.83;1.20;;;26.10;94.20;;;;;;5009916;28;20497;-14
2023/10/17 13:31:14;;;;;;;1.20;0.90;;;26.10;93.30;;;;;;4998561;28;20032;-14
2023/10/17 13:33:50;;;;;;;1.48;0.98;;;26.00;92.20;;;;;;5008047;28;20033;-14
2023/10/17 13:36:16;;;;;;;1.37;0.90;;;25.70;93.20;;;;;;4995079;28;20871;-15
2023/10/17 13:38:43;;;;;;;1.40;0.98;;;25.60;93.70;;;;;;5002761;28;20052;-15
2023/10/17 13:41:10;;;;;;;1.63;0.90;;;25.30;93.60;;;;;;4983770;28;20067;-15
2023/10/17 13:43:39;;;;;;;2.92;1.08;;;25.10;93.30;;;;;;4994764;28;20575;-15
2023/10/17 13:46:08;;;;;;;2.15;1.30;;;25.00;92.00;;;;;;5009424;28;20033;-15
2023/10/17 13:48:36;;;;;;;1.47;0.83;;;24.70;91.80;;;;;;4992002;28;20253;-15
2023/10/17 13:51:06;;;;;;;0.90;0.80;;;24.50;92.70;;;;;;5017676;28;20061;-15
2023/10/17 13:53:40;;;;;;;1.40;0.90;;;24.20;91.80;;;;;;5001882;28;20296;-15
2023/10/17 13:56:18;;;;;;;2.40;0.95;;;23.90;92.40;;;;;;4974478;28;20086;-15
2023/10/17 13:58:46;;;;;;;1.50;1.00;;;23.70;90.90;;;;;;5008092;28;20030;-15
2023/10/17 14:01:31;;;;;;;1.10;0.80;;;23.40;92.90;;;;;;5004013;28;20449;-15
2023/10/17 14:03:58;;;;;;;0.90;0.80;;;23.20;93.10;;;;;;4995577;28;20491;-15
2023/10/17 14:06:27;;;;;;;1.60;0.90;;;22.90;93.30;;;;;;5004556;28;20034;-15
2023/10/17 14:08:59;;;;;;;1.15;0.73;;;22.70;93.50;;;;;;5000767;28;20419;-15
2023/10/17 14:11:25;;;;;;;1.95;0.90;;;22.50;93.90;;;;;;4970710;28;20091;-15
2023/10/17 14:13:50;;;;;;;1.00;0.70;;;22.40;93.90;;;;;;5003757;28;20418;-15
2023/10/17 14:16:17;;;;;;;1.10;1.00;;;22.30;94.00;;;;;;5016337;28;20057;-14
2023/10/17 14:18:44;;;;;;;1.33;0.80;;;22.10;94.00;;;;;;4993140;28;20044;-14
2023/10/17 14:23:57;;;;;;;1.00;0.70;;;21.90;93.90;;;;;;4991200;28;20022;-14
2023/10/17 14:26:27;;;;;;;1.35;0.80;;;21.80;94.20;;;;;;4971142;28;21443;-14
2023/10/17 14:28:57;;;;;;;0.90;0.70;;;21.60;94.00;;;;;;4997446;28;20104;-14
2023/10/17 14:31:23;;;;;;;1.00;0.90;;;21.50;94.40;;;;;;4980058;28;20253;-13
2023/10/17 14:33:51;;;;;;;1.20;0.70;;;21.40;94.20;;;;;;4977118;28;20037;-14
2023/10/17 14:36:18;;;;;;;1.57;0.90;;;21.30;94.00;;;;;;4999725;28;20025;-14
2023/10/17 14:38:44;;;;;;;1.30;0.70;;;21.20;94.20;;;;;;4992855;28;20029;-14
2023/10/17 14:41:11;;;;;;;1.38;0.85;;;21.00;94.20;;;;;;4981817;28;20573;-14
2023/10/17 14:43:43;;;;;;;1.67;0.90;;;20.90;94.00;;;;;;4991775;28;20034;-13
2023/10/17 14:46:09;;;;;;;1.20;0.70;;;20.80;94.00;;;;;;4994183;28;20030;-15
2023/10/17 14:48:36;;;;;;;1.73;0.70;;;20.70;94.20;;;;;;4995381;28;20087;-15
2023/10/17 14:51:02;;;;;;;1.10;0.80;;;20.60;94.30;;;;;;4988229;28;20608;-15
2023/10/17 14:53:28;;;;;;;1.23;0.80;;;20.60;94.40;;;;;;4996161;28;20290;-15
2023/10/17 14:56:04;;;;;;;1.50;0.90;;;20.50;94.40;;;;;;4988237;28;20811;-15
2023/10/17 14:58:32;;;;;;;1.43;0.80;;;20.50;93.00;;;;;;4977719;28;20030;-15
2023/10/17 15:00:58;;;;;;;1.15;0.80;;;20.50;93.90;;;;;;4999676;28;20029;-15
2023/10/17 15:03:25;;;;;;;1.23;0.80;;;20.40;94.40;;;;;;5003862;28;20384;-15
2023/10/17 15:05:55;;;;;;;2.00;0.80;;;20.30;94.30;;;;;;4995784;28;20052;-14
2023/10/17 15:08:21;;;;;;;2.00;1.00;;;20.30;94.20;;;;;;5003410;28;20517;-15
2023/10/17 15:10:48;;;;;;;1.10;0.90;;;20.20;94.30;;;;;;4996763;28;20406;-14
2023/10/17 15:13:14;;;;;;;1.27;0.80;;;20.10;94.20;;;;;;4984230;28;20029;-15
2023/10/17 15:15:41;;;;;;;1.10;0.82;;;20.00;94.00;;;;;;4991541;28;20120;-14
2023/10/17 15:18:08;;;;;;;3.93;1.00;;;19.90;93.90;;;;;;5004209;28;20169;-15
2023/10/17 15:20:34;;;;;;;1.38;0.82;;;19.80;93.90;;;;;;4987172;28;20478;-15
2023/10/17 15:23:03;;;;;;;1.20;0.80;;;19.70;93.80;;;;;;4994322;28;20214;-15